| time (UTC) | temp F | wind direction | speed MPH | gust MPH | rain 1hr in | rain 24hr in | rain mn in | humidity % | barometer mb |
| 20260510184529 | 69 | 270 | 6.0 | 16.0 | 0.02 | 0.65 | 0.65 | 81 | 1017.3 |
| 20260510183028 | 67 | 215 | 6.0 | 12.0 | 0.02 | 0.65 | 0.65 | 86 | 1017.1 |
| 20260510181528 | 64 | 270 | 4.0 | 11.0 | 0.06 | 0.65 | 0.65 | 86 | 1016.9 |
| 20260510180033 | 64 | 202 | 4.0 | 13.0 | 0.31 | 0.65 | 0.65 | 86 | 1016.4 |
| 20260510174529 | 64 | 227 | 8.0 | 18.0 | 0.36 | 0.63 | 0.63 | 86 | 1016.7 |
| 20260510173028 | 64 | 186 | 11.0 | 21.0 | 0.36 | 0.63 | 0.63 | 85 | 1017.2 |
| 20260510171526 | 64 | 173 | 10.0 | 25.0 | 0.32 | 0.58 | 0.58 | 83 | 1017.8 |
| 20260510170028 | 67 | 175 | 14.0 | 29.0 | 0.05 | 0.32 | 0.32 | 77 | 1017.7 |
| 20260510164528 | 72 | 174 | 15.0 | 27.0 | 0.00 | 0.27 | 0.27 | 66 | 1017.0 |
| 20260510163031 | 76 | 262 | 4.0 | 9.0 | 0.00 | 0.27 | 0.27 | 65 | 1015.4 |
| 20260510161527 | 78 | 316 | 5.0 | 15.0 | 0.00 | 0.27 | 0.27 | 64 | 1014.9 |
| 20260510160034 | 77 | 323 | 5.0 | 15.0 | 0.00 | 0.27 | 0.27 | 66 | 1014.3 |
| 20260510154530 | 75 | 342 | 6.0 | 12.0 | 0.00 | 0.27 | 0.27 | 67 | 1014.2 |
| 20260510153032 | 75 | 315 | 6.0 | 14.0 | 0.00 | 0.27 | 0.27 | 71 | 1013.9 |
| 20260510151527 | 73 | 314 | 5.0 | 11.0 | 0.00 | 0.27 | 0.27 | 73 | 1014.0 |
| 20260510150031 | 71 | 329 | 6.0 | 16.0 | 0.00 | 0.27 | 0.27 | 75 | 1013.9 |
| 20260510144534 | 70 | 317 | 7.0 | 15.0 | 0.00 | 0.27 | 0.27 | 76 | 1013.6 |
| 20260510143028 | 69 | 360 | 4.0 | 10.0 | 0.00 | 0.27 | 0.27 | 80 | 1014.0 |
| 20260510141530 | 68 | 284 | 6.0 | 12.0 | 0.00 | 0.27 | 0.27 | 82 | 1014.2 |
| 20260510140027 | 67 | 333 | 3.0 | 8.0 | 0.00 | 0.27 | 0.27 | 84 | 1014.9 |
| 20260510134528 | 67 | 348 | 2.0 | 5.0 | 0.00 | 0.27 | 0.27 | 85 | 1015.4 |
| 20260510133027 | 66 | 286 | 2.0 | 6.0 | 0.00 | 0.27 | 0.27 | 86 | 1015.2 |
| 20260510131530 | 65 | 278 | 3.0 | 8.0 | 0.00 | 0.27 | 0.27 | 87 | 1014.9 |
| 20260510130030 | 65 | 289 | 3.0 | 8.0 | 0.00 | 0.27 | 0.27 | 87 | 1014.8 |
| 20260510124529 | 65 | 273 | 2.0 | 5.0 | 0.00 | 0.27 | 0.27 | 87 | 1014.9 |
| 20260510123030 | 64 | 219 | 1.0 | 5.0 | 0.00 | 0.27 | 0.27 | 87 | 1014.6 |
| 20260510121530 | 64 | 283 | 3.0 | 7.0 | 0.00 | 0.27 | 0.27 | 87 | 1014.4 |
| 20260510120027 | 64 | 287 | 1.0 | 4.0 | 0.00 | 0.27 | 0.27 | 87 | 1014.4 |
| 20260510114536 | 64 | 267 | 0.0 | 3.0 | 0.00 | 0.27 | 0.27 | 86 | 1014.3 |
| 20260510113039 | 64 | 0 | 0.0 | 0.0 | 0.00 | 0.27 | 0.27 | 86 | 1014.3 |
| 20260510111533 | 64 | 176 | 0.0 | 4.0 | 0.00 | 0.27 | 0.27 | 86 | 1014.3 |
| 20260510110035 | 64 | 300 | 0.0 | 6.0 | 0.00 | 0.27 | 0.27 | 86 | 1014.0 |
| 20260510104527 | 64 | 301 | 3.0 | 8.0 | 0.14 | 0.27 | 0.27 | 86 | 1013.7 |
| 20260510103030 | 64 | 255 | 4.0 | 10.0 | 0.27 | 0.27 | 0.27 | 85 | 1013.4 |
| 20260510101528 | 65 | 183 | 5.0 | 10.0 | 0.27 | 0.27 | 0.27 | 84 | 1013.6 |
| 20260510100033 | 65 | 205 | 8.0 | 20.0 | 0.27 | 0.27 | 0.27 | 83 | 1013.1 |
| 20260510094532 | 67 | 169 | 10.0 | 24.0 | 0.11 | 0.11 | 0.11 | 80 | 1014.5 |
| 20260510093028 | 69 | 149 | 14.0 | 29.0 | 0.00 | 0.00 | 0.00 | 75 | 1013.9 |
| 20260510091530 | 70 | 198 | 14.0 | 28.0 | 0.00 | 0.00 | 0.00 | 74 | 1013.8 |
| 20260510090028 | 73 | 167 | 12.0 | 23.0 | 0.00 | 0.00 | 0.00 | 83 | 1013.5 |
| 20260510084528 | 74 | 124 | 7.0 | 13.0 | 0.00 | 0.00 | 0.00 | 84 | 1012.7 |
| 20260510083028 | 74 | 225 | 4.0 | 8.0 | 0.00 | 0.00 | 0.00 | 84 | 1012.2 |
| 20260510081526 | 74 | 167 | 3.0 | 9.0 | 0.00 | 0.00 | 0.00 | 83 | 1012.3 |
| 20260510080027 | 74 | 188 | 2.0 | 5.0 | 0.00 | 0.00 | 0.00 | 83 | 1011.7 |
| 20260510074535 | 74 | 184 | 2.0 | 5.0 | 0.00 | 0.00 | 0.00 | 82 | 1011.0 |
| 20260510073030 | 75 | 223 | 3.0 | 9.0 | 0.00 | 0.00 | 0.00 | 82 | 1010.4 |
| 20260510071529 | 75 | 261 | 2.0 | 10.0 | 0.00 | 0.00 | 0.00 | 81 | 1010.2 |
| 20260510070034 | 76 | 176 | 3.0 | 12.0 | 0.00 | 0.00 | 0.00 | 80 | 1011.6 |
| 20260510064530 | 76 | 155 | 4.0 | 9.0 | 0.00 | 0.00 | 0.00 | 79 | 1011.9 |
| 20260510063034 | 76 | 126 | 2.0 | 7.0 | 0.00 | 0.00 | 0.00 | 78 | 1012.0 |
| 20260510061531 | 76 | 117 | 1.0 | 5.0 | 0.00 | 0.00 | 0.00 | 78 | 1012.0 |
| 20260510060032 | 76 | 271 | 4.0 | 11.0 | 0.00 | 0.00 | 0.00 | 78 | 1010.4 |
| 20260510054600 | 76 | 263 | 5.0 | 11.0 | 0.00 | 0.00 | 0.00 | 78 | 1009.9 |
| 20260510053030 | 76 | 263 | 6.0 | 12.0 | 0.00 | 0.00 | 0.00 | 78 | 1009.5 |
| 20260510051531 | 76 | 290 | 5.0 | 13.0 | 0.00 | 0.00 | 0.00 | 78 | 1009.5 |
| 20260510050027 | 76 | 273 | 7.0 | 15.0 | 0.00 | 0.00 | 0.00 | 78 | 1009.4 |
| 20260510044528 | 76 | 277 | 5.0 | 13.0 | 0.00 | 0.00 | 0.00 | 77 | 1009.1 |
| 20260510043030 | 76 | 290 | 4.0 | 11.0 | 0.00 | 0.00 | 0.00 | 75 | 1009.0 |
| 20260510041537 | 76 | 271 | 4.0 | 9.0 | 0.00 | 0.00 | 0.00 | 72 | 1009.3 |
| 20260510040028 | 76 | 264 | 2.0 | 5.0 | 0.00 | 0.00 | 0.00 | 71 | 1009.5 |
| 20260510034529 | 76 | 295 | 0.0 | 4.0 | 0.00 | 0.00 | 0.00 | 70 | 1009.2 |
| 20260510033027 | 76 | 261 | 1.0 | 4.0 | 0.00 | 0.00 | 0.00 | 70 | 1009.3 |
| 20260510031533 | 77 | 263 | 2.0 | 4.0 | 0.00 | 0.00 | 0.00 | 69 | 1009.4 |
| 20260510030027 | 77 | 265 | 2.0 | 4.0 | 0.00 | 0.00 | 0.00 | 68 | 1009.3 |
| 20260510024530 | 78 | 230 | 2.0 | 5.0 | 0.00 | 0.00 | 0.00 | 66 | 1009.2 |
| 20260510023030 | 78 | 239 | 2.0 | 4.0 | 0.00 | 0.00 | 0.00 | 65 | 1009.2 |
| 20260510021535 | 79 | 239 | 2.0 | 5.0 | 0.00 | 0.00 | 0.00 | 63 | 1009.0 |
| 20260510020031 | 80 | 236 | 1.0 | 4.0 | 0.00 | 0.00 | 0.00 | 61 | 1008.9 |
| 20260510014532 | 81 | 230 | 1.0 | 5.0 | 0.00 | 0.00 | 0.00 | 59 | 1008.8 |
| 20260510013029 | 82 | 243 | 2.0 | 6.0 | 0.00 | 0.00 | 0.00 | 58 | 1008.6 |
| 20260510011528 | 83 | 235 | 2.0 | 5.0 | 0.00 | 0.00 | 0.00 | 56 | 1008.3 |
| 20260510010030 | 84 | 226 | 1.0 | 5.0 | 0.00 | 0.00 | 0.00 | 56 | 1008.1 |
| 20260510004529 | 84 | 219 | 2.0 | 7.0 | 0.00 | 0.00 | 0.00 | 54 | 1008.0 |
| 20260510003026 | 84 | 196 | 3.0 | 7.0 | 0.00 | 0.00 | 0.00 | 52 | 1008.0 |
| 20260510001538 | 85 | 229 | 4.0 | 8.0 | 0.00 | 0.00 | 0.00 | 50 | 1008.2 |
| 20260510000030 | 86 | 213 | 3.0 | 7.0 | 0.00 | 0.00 | 0.00 | 47 | 1008.1 |
| 20260509234530 | 86 | 194 | 3.0 | 9.0 | 0.00 | 0.00 | 0.00 | 47 | 1008.0 |
| 20260509233030 | 87 | 165 | 4.0 | 8.0 | 0.00 | 0.00 | 0.00 | 46 | 1008.0 |
| 20260509231528 | 88 | 189 | 3.0 | 8.0 | 0.00 | 0.00 | 0.00 | 45 | 1008.2 |
| 20260509230030 | 87 | 193 | 3.0 | 11.0 | 0.00 | 0.00 | 0.00 | 42 | 1008.1 |
| 20260509224529 | 88 | 199 | 4.0 | 9.0 | 0.00 | 0.00 | 0.00 | 45 | 1008.0 |
| 20260509223028 | 88 | 182 | 2.0 | 10.0 | 0.00 | 0.00 | 0.00 | 46 | 1007.9 |
| 20260509221530 | 88 | 205 | 4.0 | 10.0 | 0.00 | 0.00 | 0.00 | 46 | 1007.9 |
| 20260509220029 | 87 | 125 | 3.0 | 10.0 | 0.00 | 0.00 | 0.00 | 48 | 1008.0 |
| 20260509214536 | 87 | 204 | 5.0 | 12.0 | 0.00 | 0.00 | 0.00 | 49 | 1008.1 |
| 20260509213028 | 88 | 189 | 4.0 | 11.0 | 0.00 | 0.00 | 0.00 | 51 | 1008.3 |
| 20260509211531 | 87 | 198 | 5.0 | 10.0 | 0.00 | 0.00 | 0.00 | 51 | 1008.5 |
| 20260509210033 | 88 | 192 | 5.0 | 10.0 | 0.00 | 0.00 | 0.00 | 53 | 1008.8 |
| 20260509204537 | 87 | 190 | 6.0 | 11.0 | 0.00 | 0.00 | 0.00 | 52 | 1009.1 |
| 20260509203027 | 88 | 233 | 2.0 | 9.0 | 0.00 | 0.00 | 0.00 | 55 | 1009.3 |
| 20260509201528 | 87 | 250 | 4.0 | 10.0 | 0.00 | 0.00 | 0.00 | 53 | 1009.4 |
| 20260509200038 | 87 | 204 | 6.0 | 12.0 | 0.00 | 0.00 | 0.00 | 55 | 1009.5 |
| 20260509194537 | 86 | 163 | 2.0 | 11.0 | 0.00 | 0.00 | 0.00 | 56 | 1009.5 |
| 20260509193036 | 88 | 184 | 2.0 | 12.0 | 0.00 | 0.00 | 0.00 | 57 | 1009.7 |
| 20260509191530 | 86 | 161 | 3.0 | 11.0 | 0.00 | 0.00 | 0.00 | 60 | 1009.9 |
| 20260509190029 | 85 | 136 | 6.0 | 12.0 | 0.00 | 0.00 | 0.00 | 60 | 1010.0 |